Time;durP1;ratioP1;P1;durP2;ratioP2;P2;SDS_P1;SDS_P2;PMS_P1;PMS_P2;Temp;Humidity;BMP_temperature;BMP_pressure;BME280_temperature;BME280_humidity;BME280_pressure;Samples;Min_cycle;Max_cycle;Signal;HPM_P1;HPM_P2
2022/03/11 00:01:22;;;;;;;14.65;5.25;;;;;;;;;;5018506;28;20191;-72
2022/03/11 00:03:48;;;;;;;12.02;4.28;;;;;;;;;;5036218;28;20725;-72
2022/03/11 00:06:14;;;;;;;13.52;4.43;;;;;;;;;;5037435;28;20180;-72
2022/03/11 00:08:40;;;;;;;17.87;5.37;;;;;;;;;;5039702;28;20539;-71
2022/03/11 00:11:06;;;;;;;17.80;5.13;;;3.50;1.00;;;;;;5036592;28;20490;-74
2022/03/11 00:13:32;;;;;;;11.23;4.60;;;;;;;;;;5040862;28;20187;-74
2022/03/11 00:15:59;;;;;;;10.63;4.03;;;;;;;;;;5036586;28;20160;-74
2022/03/11 00:18:25;;;;;;;14.02;4.75;;;;;;;;;;5039131;28;20184;-74
2022/03/11 00:20:52;;;;;;;11.43;4.40;;;;;;;;;;5036383;28;20184;-74
2022/03/11 00:23:18;;;;;;;16.73;6.55;;;;;;;;;;5035904;28;20168;-75
2022/03/11 00:25:47;;;;;;;12.18;5.00;;;;;;;;;;5037010;28;20208;-74
2022/03/11 00:28:14;;;;;;;12.38;5.35;;;;;;;;;;5036746;28;20180;-74
2022/03/11 00:30:41;;;;;;;11.93;5.50;;;;;;;;;;5036428;28;20194;-74
2022/03/11 00:33:07;;;;;;;22.02;6.45;;;;;;;;;;5035874;28;20527;-74
2022/03/11 00:35:34;;;;;;;14.00;4.82;;;;;;;;;;5036185;28;20636;-74
2022/03/11 00:38:00;;;;;;;15.20;4.63;;;;;;;;;;5041611;28;20177;-74
2022/03/11 00:40:26;;;;;;;13.95;5.75;;;;;;;;;;5028850;28;20235;-74
2022/03/11 00:42:52;;;;;;;15.50;6.05;;;;;;;;;;5033362;28;20250;-74
2022/03/11 00:45:23;;;;;;;15.35;5.78;;;;;;;;;;5034198;28;20645;-74
2022/03/11 00:47:53;;;;;;;13.27;6.20;;;;;;;;;;5035899;28;20722;-74
2022/03/11 00:50:22;;;;;;;11.77;5.43;;;;;;;;;;5018196;28;20199;-74
2022/03/11 00:52:48;;;;;;;14.23;6.03;;;;;;;;;;5048677;28;20157;-74
2022/03/11 00:55:18;;;;;;;14.10;5.50;;;;;;;;;;5036076;28;20255;-74
2022/03/11 00:57:47;;;;;;;15.52;6.03;;;;;;;;;;5038530;28;20230;-74
2022/03/11 01:00:14;;;;;;;10.48;5.20;;;;;;;;;;5035833;28;20176;-74
2022/03/11 01:02:40;;;;;;;12.45;5.78;;;;;;;;;;5035629;28;20172;-74
2022/03/11 01:05:11;;;;;;;10.60;4.85;;;;;;;;;;5035391;28;20180;-74
2022/03/11 01:07:38;;;;;;;15.70;5.38;;;;;;;;;;5018872;28;20180;-74
2022/03/11 01:10:06;;;;;;;8.05;4.75;;;;;;;;;;5035652;28;20584;-74
2022/03/11 01:12:32;;;;;;;12.75;5.93;;;;;;;;;;5018645;28;20516;-72
2022/03/11 01:14:58;;;;;;;11.98;5.00;;;;;;;;;;5015182;28;20256;-72
2022/03/11 01:17:29;;;;;;;13.27;5.72;;;;;;;;;;5016175;28;20245;-72
2022/03/11 01:19:55;;;;;;;13.35;5.65;;;;;;;;;;5015470;28;20527;-72
2022/03/11 01:22:22;;;;;;;16.02;6.38;;;;;;;;;;5026418;28;20203;-72
2022/03/11 01:24:48;;;;;;;15.77;5.95;;;;;;;;;;5015237;28;20177;-72
2022/03/11 01:27:14;;;;;;;15.13;6.45;;;;;;;;;;5028125;28;20187;-74
2022/03/11 01:29:40;;;;;;;13.65;6.38;;;;;;;;;;5015256;28;20176;-74
2022/03/11 01:32:06;;;;;;;16.25;6.93;;;;;;;;;;5015426;28;20200;-74
2022/03/11 01:34:41;;;;;;;16.35;6.63;;;;;;;;;;5015271;28;20184;-74
2022/03/11 01:37:07;;;;;;;13.95;6.05;;;;;;;;;;5015521;28;20708;-74
2022/03/11 01:39:33;;;;;;;12.55;6.20;;;;;;;;;;5015239;28;20208;-74
2022/03/11 01:42:06;;;;;;;14.60;6.10;;;;;;;;;;5015139;28;20176;-74
2022/03/11 01:44:35;;;;;;;17.55;6.80;;;;;;;;;;5014929;28;20514;-74
2022/03/11 01:47:01;;;;;;;12.57;6.53;;;;;;;;;;5031133;28;20168;-74
2022/03/11 01:49:29;;;;;;;15.32;6.35;;;;;;;;;;5022326;28;20184;-74
2022/03/11 01:51:55;;;;;;;13.85;6.80;;;;;;;;;;5014946;28;20696;-74
2022/03/11 01:54:21;;;;;;;16.80;7.25;;;;;;;;;;5014815;28;20529;-74
2022/03/11 01:56:47;;;;;;;16.75;6.90;;;;;;;;;;5015281;28;20173;-71
2022/03/11 01:59:14;;;;;;;16.05;6.93;;;;;;;;;;5023038;28;20168;-72
2022/03/11 02:01:40;;;;;;;21.33;8.05;;;;;;;;;;5014633;28;20173;-72
2022/03/11 02:04:07;;;;;;;18.48;7.28;;;;;;;;;;5021691;28;20198;-72
2022/03/11 02:06:33;;;;;;;17.40;7.35;;;1.90;1.00;;;;;;5001884;28;20180;-72
2022/03/11 02:09:01;;;;;;;16.00;8.15;;;;;;;;;;5021296;28;20185;-72
2022/03/11 02:11:27;;;;;;;16.45;7.45;;;;;;;;;;5023103;28;20286;-71
2022/03/11 02:13:56;;;;;;;16.67;7.50;;;;;;;;;;5033695;28;20256;-72
2022/03/11 02:16:27;;;;;;;18.63;7.60;;;;;;;;;;5034386;28;20181;-72
2022/03/11 02:18:53;;;;;;;17.10;7.20;;;;;;;;;;5034222;28;20178;-72
2022/03/11 02:21:20;;;;;;;25.42;8.25;;;1.80;1.00;;;;;;5034765;28;20185;-72
2022/03/11 02:23:48;;;;;;;19.55;8.40;;;1.80;1.00;;;;;;5038718;28;20588;-72
2022/03/11 02:26:18;;;;;;;20.75;7.95;;;1.80;1.00;;;;;;5016145;28;20212;-72
2022/03/11 02:28:49;;;;;;;18.63;8.68;;;1.80;1.00;;;;;;5015870;28;20192;-72
2022/03/11 02:31:15;;;;;;;18.00;8.35;;;;;;;;;;5041307;28;20197;-72
2022/03/11 02:33:41;;;;;;;23.13;9.05;;;;;;;;;;5033624;28;20177;-72
2022/03/11 02:36:07;;;;;;;17.83;7.88;;;;;;;;;;5042787;28;20180;-72
2022/03/11 02:38:34;;;;;;;18.33;8.68;;;;;;;;;;5037589;28;20181;-72
2022/03/11 02:41:00;;;;;;;18.80;7.90;;;;;;;;;;5034278;28;20255;-72
2022/03/11 02:43:26;;;;;;;17.40;8.20;;;;;;;;;;5034012;28;20617;-72
2022/03/11 02:45:52;;;;;;;18.40;8.60;;;;;;;;;;5041777;28;20171;-72
2022/03/11 02:48:18;;;;;;;17.63;9.23;;;;;;;;;;5037020;28;20225;-72
2022/03/11 02:50:47;;;;;;;20.77;8.90;;;;;;;;;;5035624;28;20556;-72
2022/03/11 02:53:14;;;;;;;22.20;9.77;;;;;;;;;;5033713;28;20226;-72
2022/03/11 02:55:40;;;;;;;20.00;8.52;;;;;;;;;;5044376;28;20547;-72
2022/03/11 02:58:06;;;;;;;19.20;8.90;;;;;;;;;;5036048;28;20179;-72
2022/03/11 03:00:32;;;;;;;16.23;8.45;;;;;;;;;;5034971;28;20262;-72
2022/03/11 03:02:59;;;;;;;22.35;9.38;;;;;;;;;;5017235;28;20255;-72
2022/03/11 03:05:25;;;;;;;24.67;10.55;;;;;;;;;;5033114;28;20204;-72
2022/03/11 03:07:51;;;;;;;20.23;9.82;;;;;;;;;;5033408;28;20259;-72
2022/03/11 03:10:17;;;;;;;32.83;10.90;;;;;;;;;;5033034;28;20211;-72
2022/03/11 03:12:44;;;;;;;23.40;10.30;;;;;;;;;;5034239;28;20210;-72
2022/03/11 03:15:17;;;;;;;20.90;9.75;;;;;;;;;;5033313;28;20509;-72
2022/03/11 03:17:43;;;;;;;24.70;10.52;;;;;;;;;;5036743;28;20631;-72
2022/03/11 03:20:10;;;;;;;21.75;11.05;;;;;;;;;;5041772;28;20172;-72
2022/03/11 03:22:36;;;;;;;19.65;10.10;;;;;;;;;;5033729;28;20188;-72
2022/03/11 03:25:03;;;;;;;26.00;10.88;;;1.80;1.00;;;;;;5032944;28;20180;-72
2022/03/11 03:27:30;;;;;;;30.42;11.30;;;;;;;;;;5033577;28;20629;-72
2022/03/11 03:29:56;;;;;;;27.05;11.30;;;;;;;;;;5033486;28;20188;-72
2022/03/11 03:32:22;;;;;;;23.85;10.98;;;;;;;;;;5022711;28;20593;-72
2022/03/11 03:34:49;;;;;;;31.25;11.57;;;;;;;;;;5032957;28;20248;-72
2022/03/11 03:37:15;;;;;;;24.25;10.10;;;;;;;;;;5034648;28;20263;-72
2022/03/11 03:39:41;;;;;;;26.73;11.60;;;;;;;;;;5032739;28;20573;-72
2022/03/11 03:42:12;;;;;;;26.30;12.35;;;1.80;1.00;;;;;;5015602;28;20553;-73
2022/03/11 03:44:38;;;;;;;23.20;11.20;;;;;;;;;;5033147;28;20184;-74
2022/03/11 03:47:04;;;;;;;22.75;10.70;;;;;;;;;;5032723;28;20172;-74
2022/03/11 03:49:35;;;;;;;27.88;12.30;;;;;;;;;;5033409;28;20203;-74
2022/03/11 03:52:02;;;;;;;26.95;11.60;;;;;;;;;;5041096;28;20207;-74
2022/03/11 03:54:29;;;;;;;26.23;12.07;;;;;;;;;;5033091;28;20619;-74
2022/03/11 03:56:59;;;;;;;24.40;11.45;;;;;;;;;;5029777;28;20180;-74
2022/03/11 03:59:25;;;;;;;22.48;10.80;;;;;;;;;;5033368;28;20169;-74
2022/03/11 04:01:52;;;;;;;24.73;11.98;;;;;;;;;;5033231;28;20747;-74
2022/03/11 04:04:18;;;;;;;29.60;11.93;;;;;;;;;;5032771;28;20175;-74
2022/03/11 04:06:47;;;;;;;34.28;12.60;;;;;;;;;;5032973;28;20537;-74
2022/03/11 04:09:13;;;;;;;30.17;12.15;;;;;;;;;;5034388;28;20172;-74
2022/03/11 04:11:42;;;;;;;25.73;12.20;;;;;;;;;;5036575;28;20259;-74
2022/03/11 04:14:09;;;;;;;27.05;11.45;;;;;;;;;;5036539;28;20179;-72
2022/03/11 04:16:35;;;;;;;28.30;12.25;;;;;;;;;;5033629;28;20187;-72
2022/03/11 04:19:01;;;;;;;30.23;12.60;;;;;;;;;;5036477;28;20177;-72
2022/03/11 04:21:27;;;;;;;25.55;12.55;;;;;;;;;;5036561;28;20180;-72
2022/03/11 04:23:53;;;;;;;32.60;12.93;;;;;;;;;;5036365;28;20633;-72
2022/03/11 04:26:20;;;;;;;26.15;12.52;;;;;;;;;;5035912;28;20211;-72
2022/03/11 04:28:46;;;;;;;22.60;11.07;;;;;;;;;;5036671;28;20180;-72
2022/03/11 04:31:12;;;;;;;27.98;12.60;;;1.70;1.00;;;;;;5036278;28;20223;-72
2022/03/11 04:33:42;;;;;;;28.35;11.73;;;1.80;1.00;;;;;;5021466;28;20181;-72
2022/03/11 04:36:08;;;;;;;27.17;11.45;;;;;;;;;;5035948;28;20231;-72
2022/03/11 04:38:35;;;;;;;22.17;11.05;;;;;;;;;;5041441;28;20187;-72
2022/03/11 04:41:01;;;;;;;25.13;11.82;;;;;;;;;;5035909;28;20629;-72
2022/03/11 04:43:27;;;;;;;28.25;12.20;;;;;;;;;;5040373;28;20259;-72
2022/03/11 04:45:53;;;;;;;25.42;10.73;;;;;;;;;;5035528;28;20358;-72
2022/03/11 04:48:20;;;;;;;28.95;12.13;;;;;;;;;;5040357;28;20180;-72
2022/03/11 04:50:46;;;;;;;24.20;11.30;;;;;;;;;;5045010;28;20680;-72
2022/03/11 04:53:17;;;;;;;26.45;11.98;;;;;;;;;;5035667;28;20675;-72
2022/03/11 04:55:44;;;;;;;25.40;11.02;;;;;;;;;;5035367;28;20255;-72
2022/03/11 04:58:10;;;;;;;22.42;10.25;;;;;;;;;;5037531;28;20188;-72
2022/03/11 05:00:36;;;;;;;23.48;10.57;;;;;;;;;;5018039;28;20625;-72
2022/03/11 05:03:02;;;;;;;25.52;11.38;;;;;;;;;;5035831;28;20169;-72
2022/03/11 05:05:29;;;;;;;29.15;12.20;;;;;;;;;;5035161;28;20251;-72
2022/03/11 05:08:01;;;;;;;24.77;11.50;;;;;;;;;;5046985;28;20172;-72
2022/03/11 05:10:27;;;;;;;21.10;10.50;;;;;;;;;;5035710;28;20192;-72
2022/03/11 05:12:53;;;;;;;21.98;10.60;;;;;;;;;;5036295;28;20169;-72
2022/03/11 05:15:21;;;;;;;25.58;11.35;;;;;;;;;;5035582;28;20173;-72
2022/03/11 05:17:47;;;;;;;29.73;11.88;;;;;;;;;;5047546;28;20172;-72
2022/03/11 05:20:13;;;;;;;24.00;10.38;;;;;;;;;;5034106;28;20576;-72
2022/03/11 05:22:41;;;;;;;22.05;10.18;;;;;;;;;;5025813;28;20246;-72
2022/03/11 05:25:08;;;;;;;29.52;10.93;;;;;;;;;;5034691;28;20585;-72
2022/03/11 05:27:34;;;;;;;20.38;9.88;;;;;;;;;;5037880;28;20521;-72
2022/03/11 05:30:00;;;;;;;24.73;10.27;;;;;;;;;;5035529;28;20172;-74
2022/03/11 05:32:26;;;;;;;18.30;8.68;;;;;;;;;;5045909;28;20556;-74
2022/03/11 05:34:54;;;;;;;19.85;9.60;;;;;;;;;;5035255;28;20172;-74
2022/03/11 05:37:23;;;;;;;23.27;9.75;;;;;;;;;;5046366;28;20515;-74
2022/03/11 05:40:00;;;;;;;31.92;10.80;;;;;;;;;;5016988;28;20554;-74
2022/03/11 05:42:26;;;;;;;21.50;10.35;;;;;;;;;;5024071;28;20173;-74
2022/03/11 05:44:52;;;;;;;29.38;10.02;;;;;;;;;;5035188;28;20498;-74
2022/03/11 05:47:24;;;;;;;22.65;9.90;;;;;;;;;;5038254;28;20625;-74
2022/03/11 05:49:50;;;;;;;18.92;9.63;;;;;;;;;;5034784;28;20212;-74
2022/03/11 05:52:16;;;;;;;23.48;10.15;;;;;;;;;;5034616;28;20270;-74
2022/03/11 05:54:42;;;;;;;22.67;9.93;;;;;;;;;;5034811;28;20615;-75
2022/03/11 05:57:12;;;;;;;24.02;9.35;;;;;;;;;;5034635;28;20172;-74
2022/03/11 05:59:38;;;;;;;19.88;9.10;;;;;;;;;;5037437;28;20691;-72
2022/03/11 06:02:04;;;;;;;21.50;9.15;;;;;;;;;;5034387;28;20516;-72
2022/03/11 06:04:36;;;;;;;27.38;9.50;;;;;;;;;;5010178;28;20557;-74
2022/03/11 06:07:03;;;;;;;26.40;9.88;;;;;;;;;;5044080;28;20271;-74
2022/03/11 06:09:30;;;;;;;19.27;9.25;;;;;;;;;;5034180;28;20587;-74
2022/03/11 06:11:57;;;;;;;24.40;9.18;;;;;;;;;;5034192;28;20216;-74
2022/03/11 06:14:24;;;;;;;21.20;9.45;;;;;;;;;;5034537;28;20168;-72
2022/03/11 06:16:51;;;;;;;23.80;10.60;;;;;;;;;;5033982;28;20176;-73
2022/03/11 06:19:17;;;;;;;21.30;9.45;;;;;;;;;;5040374;28;20164;-72
2022/03/11 06:21:43;;;;;;;22.65;10.00;;;;;;;;;;5041413;28;20191;-72
2022/03/11 06:24:10;;;;;;;20.43;9.03;;;;;;;;;;5034029;28;20245;-72
2022/03/11 06:26:36;;;;;;;22.60;9.75;;;;;;;;;;5033627;28;21103;-72
2022/03/11 06:29:05;;;;;;;18.17;8.88;;;;;;;;;;5009096;28;20204;-74
2022/03/11 06:31:35;;;;;;;23.35;9.70;;;;;;;;;;5014696;28;20561;-74
2022/03/11 06:34:02;;;;;;;24.00;9.02;;;;;;;;;;5033542;28;20183;-74
2022/03/11 06:36:30;;;;;;;29.13;9.80;;;;;;;;;;5039741;28;20184;-74
2022/03/11 06:38:57;;;;;;;18.55;8.60;;;;;;;;;;5033876;28;20259;-74
2022/03/11 06:41:23;;;;;;;25.58;9.00;;;;;;;;;;5038252;28;21009;-74
2022/03/11 06:43:50;;;;;;;24.75;8.05;;;;;;;;;;5040742;28;20651;-72
2022/03/11 06:46:17;;;;;;;22.63;8.55;;;;;;;;;;5034494;28;20182;-72
2022/03/11 06:48:43;;;;;;;20.40;8.60;;;;;;;;;;5038362;28;20520;-72
2022/03/11 06:51:09;;;;;;;17.90;8.13;;;;;;;;;;5034365;28;20204;-72
2022/03/11 06:53:36;;;;;;;17.80;8.32;;;;;;;;;;5033711;28;20259;-72
2022/03/11 06:56:04;;;;;;;21.67;8.70;;;;;;;;;;5033233;28;20172;-72
2022/03/11 06:58:33;;;;;;;16.17;7.95;;;;;;;;;;5033454;28;20179;-72
2022/03/11 07:00:59;;;;;;;21.55;8.82;;;;;;;;;;5029584;28;20251;-72
2022/03/11 07:03:30;;;;;;;14.00;6.25;;;;;;;;;;5027870;28;20573;-72
2022/03/11 07:05:57;;;;;;;23.20;8.68;;;;;;;;;;5017114;28;20212;-72
2022/03/11 07:08:24;;;;;;;15.95;5.88;;;;;;;;;;5037888;28;20247;-72
2022/03/11 07:10:51;;;;;;;13.50;5.38;;;;;;;;;;5033359;28;20269;-72
2022/03/11 07:13:17;;;;;;;9.90;4.75;;;;;;;;;;5033248;28;20168;-72
2022/03/11 07:15:43;;;;;;;17.58;5.95;;;;;;;;;;5033307;28;20202;-72
2022/03/11 07:18:09;;;;;;;20.98;5.47;;;;;;;;;;5032968;28;20251;-72
2022/03/11 07:20:35;;;;;;;17.42;5.95;;;;;;;;;;5043196;28;20184;-72
2022/03/11 07:23:01;;;;;;;17.50;6.57;;;;;;;;;;5041504;28;20219;-72
2022/03/11 07:25:28;;;;;;;21.73;5.88;;;;;;;;;;5043744;28;20473;-72
2022/03/11 07:27:54;;;;;;;25.23;7.03;;;;;;;;;;5034160;28;20195;-72
2022/03/11 07:30:20;;;;;;;17.00;6.00;;;;;;;;;;5037476;28;20426;-72
2022/03/11 07:32:46;;;;;;;24.60;6.70;;;;;;;;;;5022583;28;20879;-72
2022/03/11 07:35:18;;;;;;;19.40;5.13;;;;;;;;;;5032990;28;20244;-72
2022/03/11 07:37:44;;;;;;;21.27;6.40;;;;;;;;;;5031984;28;20254;-72
2022/03/11 07:40:12;;;;;;;23.52;6.15;;;;;;;;;;5018658;28;20169;-72
2022/03/11 07:42:42;;;;;;;17.73;5.07;;;;;;;;;;5032855;28;20180;-72
2022/03/11 07:45:10;;;;;;;184.63;19.95;;;;;;;;;;5033587;28;20172;-73
2022/03/11 07:47:37;;;;;;;21.77;6.40;;;;;;;;;;5034547;28;20222;-73
2022/03/11 07:50:12;;;;;;;29.80;7.40;;;;;;;;;;5036743;28;20446;-76
2022/03/11 07:52:38;;;;;;;14.80;5.37;;;;;;;;;;5036369;28;20965;-72
2022/03/11 07:55:09;;;;;;;23.53;6.97;;;4.70;99.90;;;;;;5037390;28;20407;-71
2022/03/11 07:57:39;;;;;;;13.10;4.90;;;;;;;;;;5036170;28;20422;-73
2022/03/11 08:00:11;;;;;;;20.80;6.17;;;4.80;99.90;;;;;;5042353;28;20777;-73
2022/03/11 08:02:39;;;;;;;23.03;7.40;;;;;;;;;;5039924;28;20419;-72
2022/03/11 08:05:05;;;;;;;18.40;6.20;;;;;;;;;;5036502;28;20497;-72
2022/03/11 08:07:34;;;;;;;14.30;5.50;;;;;;;;;;5036236;28;20429;-72
2022/03/11 08:10:00;;;;;;;12.93;5.63;;;;;;;;;;5035721;28;20197;-72
2022/03/11 08:12:29;;;;;;;13.30;5.70;;;;;;;;;;5036048;28;20490;-72
2022/03/11 08:14:57;;;;;;;15.47;6.00;;;;;;;;;;5036458;28;20424;-73
2022/03/11 08:17:23;;;;;;;11.80;4.55;;;;;;;;;;5036407;28;20399;-72
2022/03/11 08:19:49;;;;;;;14.00;5.90;;;;;;;;;;5035029;28;20176;-72
2022/03/11 08:22:15;;;;;;;47.73;7.90;;;;;;;;;;5034627;28;20956;-72
2022/03/11 08:24:42;;;;;;;17.77;6.07;;;;;;;;;;5036973;28;20524;-72
2022/03/11 08:27:12;;;;;;;16.20;5.70;;;;;;;;;;5035322;28;20427;-72
2022/03/11 08:29:38;;;;;;;25.83;5.63;;;;;;;;;;5033738;28;20434;-72
2022/03/11 08:32:05;;;;;;;12.93;5.37;;;;;;;;;;5029852;28;20474;-74
2022/03/11 08:34:36;;;;;;;10.47;5.10;;;;;;;;;;5046235;28;20919;-74
2022/03/11 08:37:02;;;;;;;12.47;5.97;;;;;;;;;;5036122;28;20457;-74
2022/03/11 08:39:28;;;;;;;16.53;4.70;;;;;;;;;;5035796;28;20414;-74
2022/03/11 08:42:06;;;;;;;16.40;5.67;;;;;;;;;;5022002;28;20492;-74
2022/03/11 08:44:42;;;;;;;13.47;5.87;;;;;;;;;;5042506;28;20917;-74
2022/03/11 08:47:08;;;;;;;17.87;5.83;;;;;;;;;;5006626;28;20914;-74
2022/03/11 08:49:34;;;;;;;17.77;6.33;;;;;;;;;;5019301;28;20521;-74
2022/03/11 08:52:00;;;;;;;15.10;5.67;;;;;;;;;;5018633;28;20459;-74
2022/03/11 08:54:26;;;;;;;24.13;6.70;;;;;;;;;;5039901;28;20510;-74
2022/03/11 08:56:54;;;;;;;18.80;7.10;;;;;;;;;;5034798;28;20415;-74
2022/03/11 08:59:24;;;;;;;31.40;7.00;;;;;;;;;;5035758;28;20392;-74
2022/03/11 09:01:54;;;;;;;13.07;5.33;;;;;;;;;;5042457;28;20839;-74
2022/03/11 09:04:24;;;;;;;48.83;7.50;;;;;;;;;;5052157;28;20469;-74
2022/03/11 09:06:54;;;;;;;19.07;6.00;;;;;;;;;;5045124;28;20422;-74
2022/03/11 09:09:20;;;;;;;13.60;5.63;;;;;;;;;;5038152;28;20896;-74
2022/03/11 09:11:46;;;;;;;17.07;5.87;;;;;;;;;;5024228;28;20564;-75
2022/03/11 09:14:12;;;;;;;12.90;6.03;;;;;;;;;;5035138;28;20921;-74
2022/03/11 09:16:42;;;;;;;49.87;8.73;;;;;;;;;;5025044;28;20419;-74
2022/03/11 09:19:13;;;;;;;29.87;6.90;;;;;;;;;;5036162;28;20427;-74
2022/03/11 09:21:39;;;;;;;13.03;5.60;;;;;;;;;;5043196;28;20419;-74
2022/03/11 09:24:06;;;;;;;18.00;6.37;;;;;;;;;;5035732;28;20517;-74
2022/03/11 09:26:32;;;;;;;30.07;7.50;;;;;;;;;;5031423;28;20525;-74
2022/03/11 09:29:00;;;;;;;32.67;7.43;;;;;;;;;;5035454;28;20418;-74
2022/03/11 09:31:26;;;;;;;15.83;6.63;;;;;;;;;;5032931;28;20986;-72
2022/03/11 09:33:52;;;;;;;14.60;6.20;;;;;;;;;;5037758;28;20496;-72
2022/03/11 09:36:18;;;;;;;19.40;7.20;;;;;;;;;;5034851;28;20472;-72
2022/03/11 09:38:44;;;;;;;12.90;5.67;;;;;;;;;;5039918;28;20427;-72
2022/03/11 09:41:11;;;;;;;32.00;8.80;;;;;;;;;;5031834;28;20802;-72
2022/03/11 09:43:38;;;;;;;18.63;6.63;;;6.90;99.90;;;;;;5034207;28;20830;-72
2022/03/11 09:46:09;;;;;;;12.83;6.33;;;;;;;;;;5034884;28;20477;-74
2022/03/11 09:48:35;;;;;;;18.20;6.70;;;;;;;;;;5034453;28;20431;-74
2022/03/11 09:51:02;;;;;;;14.50;6.50;;;;;;;;;;5034734;28;20458;-74
2022/03/11 09:53:28;;;;;;;21.67;7.27;;;;;;;;;;5034641;28;20427;-74
2022/03/11 09:56:00;;;;;;;21.03;7.50;;;;;;;;;;5033238;28;20482;-74
2022/03/11 09:58:29;;;;;;;21.13;7.43;;;;;;;;;;5038835;28;20895;-74
2022/03/11 10:01:11;;;;;;;13.60;6.63;;;;;;;;;;5034748;28;20911;-74
2022/03/11 10:03:42;;;;;;;15.53;6.87;;;;;;;;;;5034468;28;20848;-74
2022/03/11 10:06:08;;;;;;;19.17;7.10;;;;;;;;;;5028926;28;20937;-75
2022/03/11 10:08:42;;;;;;;17.73;7.00;;;7.70;99.90;;;;;;5038781;28;20489;-74
2022/03/11 10:11:18;;;;;;;20.00;7.13;;;7.60;1.00;;;;;;5036257;28;20489;-74
2022/03/11 10:13:44;;;;;;;17.03;6.20;;;;;;;;;;5042694;28;20414;-74
2022/03/11 10:16:17;;;;;;;16.27;7.30;;;;;;;;;;5034714;28;20414;-72
2022/03/11 10:18:58;;;;;;;13.80;6.50;;;8.00;99.90;;;;;;5033809;28;20427;-72
2022/03/11 10:21:34;;;;;;;16.13;7.53;;;;;;;;;;5025333;28;20422;-72
2022/03/11 10:24:01;;;;;;;20.53;7.33;;;;;;;;;;5033703;28;20403;-72
2022/03/11 10:27:02;;;;;;;13.80;6.63;;;;;;;;;;5033550;28;20426;-72
2022/03/11 10:29:33;;;;;;;15.57;6.67;;;8.20;99.90;;;;;;4941221;29;20448;-72
2022/03/11 10:32:01;;;;;;;18.30;7.43;;;;;;;;;;4951665;29;20503;-72
2022/03/11 10:34:27;;;;;;;20.67;7.57;;;;;;;;;;4953554;29;20958;-72
2022/03/11 10:36:53;;;;;;;17.73;7.07;;;;;;;;;;4953266;28;20426;-72
2022/03/11 10:39:22;;;;;;;17.17;6.80;;;;;;;;;;4952655;29;20435;-72
2022/03/11 10:41:50;;;;;;;16.77;7.00;;;;;;;;;;4946760;29;20533;-75
2022/03/11 10:44:26;;;;;;;18.80;7.30;;;8.80;99.90;;;;;;4953534;29;20423;-73
2022/03/11 10:46:53;;;;;;;18.07;7.53;;;9.00;99.90;;;;;;4940090;29;20439;-75
2022/03/11 10:49:33;;;;;;;69.43;11.67;;;;;;;;;;4948331;28;20430;-74
2022/03/11 10:52:03;;;;;;;35.33;8.60;;;;;;;;;;4953556;28;20532;-75
2022/03/11 10:54:30;;;;;;;14.37;6.80;;;;;;;;;;4962844;28;20434;-75
2022/03/11 10:57:09;;;;;;;16.33;7.10;;;9.20;99.90;;;;;;4962103;28;20418;-74
2022/03/11 10:59:36;;;;;;;18.90;8.00;;;;;;;;;;4953303;29;20462;-74
2022/03/11 11:02:02;;;;;;;18.20;7.37;;;;;;;;;;4953598;29;20411;-75
2022/03/11 11:04:28;;;;;;;19.87;7.40;;;;;;;;;;4953439;29;20539;-74
2022/03/11 11:06:54;;;;;;;18.77;7.17;;;9.40;99.90;;;;;;5028707;28;20505;-74
2022/03/11 11:09:24;;;;;;;12.90;6.57;;;;;;;;;;5033423;28;20431;-75
2022/03/11 11:11:51;;;;;;;14.23;6.83;;;9.50;99.90;;;;;;5029286;28;20464;-74
2022/03/11 11:14:17;;;;;;;15.50;7.10;;;;;;;;;;5013898;28;20922;-75
2022/03/11 11:16:45;;;;;;;16.23;6.90;;;;;;;;;;5014079;28;20428;-72
2022/03/11 11:19:19;;;;;;;19.90;6.80;;;9.80;99.90;;;;;;5012658;28;20448;-72
2022/03/11 11:21:46;;;;;;;12.20;5.83;;;;;;;;;;5013693;28;20506;-72
2022/03/11 11:24:17;;;;;;;17.00;7.03;;;9.80;99.90;;;;;;5013573;28;20466;-72
2022/03/11 11:26:47;;;;;;;14.17;6.83;;;;;;;;;;5012094;28;20439;-72
2022/03/11 11:29:17;;;;;;;43.67;7.70;;;;;;;;;;5005418;28;20467;-73
2022/03/11 11:31:45;;;;;;;31.37;7.73;;;9.90;99.90;;;;;;5013752;28;20819;-73
2022/03/11 11:34:31;;;;;;;15.00;7.30;;;;;;;;;;5013247;28;20423;-72
2022/03/11 11:36:58;;;;;;;18.90;7.43;;;;;;;;;;5011958;28;20428;-72
2022/03/11 11:39:35;;;;;;;18.83;7.57;;;10.10;99.90;;;;;;5012944;28;20770;-72
2022/03/11 11:42:06;;;;;;;18.13;7.37;;;;;;;;;;5013412;28;20424;-72
2022/03/11 11:44:37;;;;;;;16.93;7.87;;;10.20;99.90;;;;;;5012142;28;20562;-72
2022/03/11 11:47:07;;;;;;;18.63;7.67;;;;;;;;;;5013014;28;20424;-73
2022/03/11 11:49:40;;;;;;;125.47;15.10;;;;;;;;;;5010408;28;20440;-73
2022/03/11 11:52:11;;;;;;;60.57;9.50;;;;;;;;;;5007139;28;20782;-72
2022/03/11 11:54:43;;;;;;;51.17;8.70;;;10.50;99.90;;;;;;5005506;28;20761;-72
2022/03/11 11:57:16;;;;;;;18.73;7.43;;;10.60;99.90;;;;;;5007171;28;20945;-72
2022/03/11 11:59:42;;;;;;;30.27;7.83;;;;;;;;;;5010845;28;20519;-73
2022/03/11 12:02:26;;;;;;;16.30;7.03;;;10.60;99.90;;;;;;5013651;28;20388;-72
2022/03/11 12:04:52;;;;;;;13.53;7.13;;;;;;;;;;5013272;28;20852;-73
2022/03/11 12:07:21;;;;;;;16.40;6.97;;;10.80;99.90;;;;;;5012779;28;20409;-72
2022/03/11 12:09:54;;;;;;;14.27;7.10;;;10.80;99.90;;;;;;5012894;28;20484;-72
2022/03/11 12:12:20;;;;;;;18.83;7.83;;;;;;;;;;5013042;28;20448;-72
2022/03/11 12:14:58;;;;;;;19.00;7.10;;;;;;;;;;5012408;28;20419;-72
2022/03/11 12:17:48;;;;;;;15.50;7.23;;;11.10;99.90;;;;;;5013500;28;20384;-72
2022/03/11 12:20:26;;;;;;;14.97;7.43;;;11.10;99.90;;;;;;5012699;28;20424;-72
2022/03/11 12:23:05;;;;;;;15.50;6.97;;;;;;;;;;5013102;28;20421;-72
2022/03/11 12:25:45;;;;;;;21.73;6.60;;;11.30;99.90;;;;;;5012348;28;20396;-72
2022/03/11 12:28:20;;;;;;;15.20;6.80;;;;;;;;;;5007694;28;20422;-72
2022/03/11 12:30:50;;;;;;;16.10;7.40;;;;;;;;;;5018169;28;20404;-72
2022/03/11 12:33:45;;;;;;;19.20;7.47;;;11.60;99.90;;;;;;5015870;28;20395;-74
2022/03/11 12:36:16;;;;;;;19.23;7.27;;;;;;;;;;5010044;28;20408;-74
2022/03/11 12:38:43;;;;;;;25.63;7.70;;;11.80;99.90;;;;;;5016674;28;20848;-75
2022/03/11 12:41:10;;;;;;;25.50;6.90;;;;;;;;;;5015724;28;20407;-74
2022/03/11 12:43:37;;;;;;;11.40;6.20;;;12.00;99.90;;;;;;5015149;28;20434;-74
2022/03/11 12:46:04;;;;;;;16.10;7.30;;;12.20;99.90;;;;;;4999459;28;20438;-74
2022/03/11 12:48:33;;;;;;;19.10;7.13;;;;;;;;;;5014489;28;20420;-72
2022/03/11 12:51:00;;;;;;;43.83;9.37;;;;;;;;;;5011248;28;20794;-72
2022/03/11 12:53:26;;;;;;;26.00;7.03;;;;;;;;;;5004132;28;20421;-73
2022/03/11 12:55:53;;;;;;;19.80;7.60;;;12.40;99.90;;;;;;5015938;28;20463;-74
2022/03/11 12:58:48;;;;;;;22.40;7.67;;;12.50;99.90;;;;;;5014915;28;20401;-73
2022/03/11 13:01:15;;;;;;;25.80;8.03;;;;;;;;;;4968927;28;20790;-73
2022/03/11 13:03:43;;;;;;;20.00;7.30;;;12.60;99.90;;;;;;4974638;28;20405;-74
2022/03/11 13:06:13;;;;;;;25.80;7.57;;;12.40;99.90;;;;;;4974800;28;20441;-74
2022/03/11 13:08:39;;;;;;;13.70;6.90;;;12.50;99.90;;;;;;4974832;28;20882;-75
2022/03/11 13:11:07;;;;;;;20.23;6.83;;;;;;;;;;4974185;28;20456;-75
2022/03/11 13:13:33;;;;;;;15.10;6.50;;;;;;;;;;4974834;28;20431;-75
2022/03/11 13:16:01;;;;;;;18.33;7.93;;;12.80;99.90;;;;;;4972854;28;20433;-76
2022/03/11 13:18:29;;;;;;;15.30;7.07;;;12.90;99.90;;;;;;4978863;28;20950;-73
2022/03/11 13:20:56;;;;;;;17.83;7.67;;;;;;;;;;4973961;28;20971;-73
2022/03/11 13:23:25;;;;;;;19.67;7.63;;;;;;;;;;4975144;28;20468;-75
2022/03/11 13:25:59;;;;;;;18.63;6.50;;;13.10;99.90;;;;;;4973999;28;20606;-73
2022/03/11 13:28:45;;;;;;;17.77;7.93;;;13.30;99.90;;;;;;4982743;28;20437;-73
2022/03/11 13:31:15;;;;;;;29.30;8.63;;;;;;;;;;4977200;28;20466;-72
2022/03/11 13:33:42;;;;;;;23.93;7.73;;;;;;;;;;4974477;28;20426;-73
2022/03/11 13:36:14;;;;;;;17.33;7.60;;;;;;;;;;4979240;28;20419;-76
2022/03/11 13:39:03;;;;;;;25.63;7.70;;;13.00;99.90;;;;;;5010263;28;20722;-76
2022/03/11 13:41:46;;;;;;;20.40;8.23;;;;;;;;;;5015008;28;20427;-74
2022/03/11 13:44:24;;;;;;;17.50;7.10;;;13.20;99.90;;;;;;5016083;28;20891;-74
2022/03/11 13:46:58;;;;;;;20.73;7.33;;;13.10;99.90;;;;;;5025199;28;20764;-75
2022/03/11 13:49:25;;;;;;;17.53;7.90;;;;;;;;;;5014084;28;20397;-72
2022/03/11 13:51:58;;;;;;;22.27;8.13;;;;;;;;;;5014908;28;20437;-72
2022/03/11 13:54:35;;;;;;;18.63;7.80;;;13.40;99.90;;;;;;5021491;28;20431;-72
2022/03/11 13:57:30;;;;;;;21.23;7.90;;;13.40;99.90;;;;;;5021543;28;20399;-72
2022/03/11 13:59:59;;;;;;;17.90;7.67;;;;;;;;;;5013026;28;20428;-72
2022/03/11 14:02:32;;;;;;;21.13;8.10;;;13.30;99.90;;;;;;5014742;28;20922;-73
2022/03/11 14:05:16;;;;;;;18.53;7.67;;;13.30;99.90;;;;;;5022005;28;20422;-72
2022/03/11 14:07:45;;;;;;;16.77;7.43;;;13.40;99.90;;;;;;5008449;28;20428;-72
2022/03/11 14:10:15;;;;;;;20.23;8.63;;;;;;;;;;5014657;28;20406;-72
2022/03/11 14:12:41;;;;;;;15.50;7.33;;;;;;;;;;5012985;28;20460;-73
2022/03/11 14:15:12;;;;;;;19.37;7.40;;;;;;;;;;5014389;28;20554;-72
2022/03/11 14:17:39;;;;;;;19.73;7.70;;;13.70;99.90;;;;;;5014170;28;20919;-72